Terminal Aerodrome Forecast
Issued by NWS

Home | Current Version | Previous Version | Text Only | Print | Product List | Glossary On
Versions: 1 2 3 4 5 6 7 8 9 10 11 12 13 14
688
FTUS42 KTAE 241120
TAFDHN
TAF
KDHN 241120Z 2412/2512 30007KT P6SM BKN019
     FM241700 30012G18KT P6SM BKN035
     FM242300 31006KT P6SM SKC=

USA.gov is the U.S. government's official web portal to all federal, state and local government web resources and services.